Time;durP1;ratioP1;P1;durP2;ratioP2;P2;SDS_P1;SDS_P2;PMS_P1;PMS_P2;Temp;Humidity;BMP_temperature;BMP_pressure;BME280_temperature;BME280_humidity;BME280_pressure;Samples;Min_cycle;Max_cycle;Signal;HPM_P1;HPM_P2
2022/09/07 00:00:23;;;;;;;18.37;16.67;;;25.10;59.40;;;;;;4803406;54;21016;-36
2022/09/07 00:05:24;;;;;;;18.35;16.65;;;25.10;59.10;;;;;;4804638;54;21000;-37
2022/09/07 00:10:25;;;;;;;19.62;17.67;;;25.10;59.20;;;;;;4804122;54;21500;-35
2022/09/07 00:15:26;;;;;;;19.20;17.37;;;25.10;59.30;;;;;;4823707;54;21525;-34
2022/09/07 00:20:27;;;;;;;18.87;17.08;;;25.00;59.40;;;;;;4841389;54;21070;-37
2022/09/07 00:25:28;;;;;;;19.05;17.33;;;25.10;59.40;;;;;;4795800;58;21522;-37
2022/09/07 00:30:29;;;;;;;18.42;16.62;;;25.10;59.50;;;;;;4804419;54;21071;-33
2022/09/07 00:35:30;;;;;;;18.67;16.95;;;25.00;59.30;;;;;;4794791;58;21020;-31
2022/09/07 00:40:31;;;;;;;18.52;16.83;;;25.00;59.20;;;;;;4805412;54;21477;-36
2022/09/07 00:45:32;;;;;;;18.85;17.15;;;25.00;59.40;;;;;;4823577;54;21454;-30
2022/09/07 00:50:45;;;;;;;18.37;16.67;;;25.00;59.40;;;;;;4816961;54;21063;-31
2022/09/07 00:55:48;;;;;;;17.70;16.10;;;25.00;59.30;;;;;;4819501;54;21181;-31
2022/09/07 01:00:49;;;;;;;17.85;16.17;;;25.00;59.40;;;;;;4834531;54;21055;-32
2022/09/07 01:06:19;;;;;;;17.75;16.15;;;25.00;59.40;;;;;;4819487;54;21023;-35
2022/09/07 01:11:21;;;;;;;17.15;15.55;;;25.00;59.50;;;;;;4814177;54;21023;-31
2022/09/07 01:16:59;;;;;;;17.83;16.23;;;25.00;59.50;;;;;;4812092;54;21040;-36
2022/09/07 01:25:03;;;;;;;17.12;15.60;;;25.00;59.50;;;;;;4795369;55;21139;-34
2022/09/07 01:30:16;;;;;;;17.52;15.93;;;25.00;59.50;;;;;;4815682;54;21060;-28
2022/09/07 01:37:09;;;;;;;17.95;16.17;;;25.00;59.40;;;;;;4832648;54;21079;-35
2022/09/07 01:42:13;;;;;;;16.90;15.30;;;25.00;59.40;;;;;;4881521;54;21020;-37
2022/09/07 01:47:39;;;;;;;17.20;15.60;;;25.00;59.50;;;;;;4805015;54;22171;-31
2022/09/07 01:52:55;;;;;;;17.23;15.63;;;25.00;59.50;;;;;;4798281;54;21015;-35
2022/09/07 01:58:18;;;;;;;16.17;14.77;;;25.00;59.60;;;;;;4803616;54;21032;-32
2022/09/07 02:04:02;;;;;;;16.52;15.02;;;25.00;59.40;;;;;;4835787;54;21095;-25
2022/09/07 02:10:28;;;;;;;16.50;15.00;;;25.00;59.70;;;;;;4801975;54;21005;-35
2022/09/07 02:16:19;;;;;;;16.80;15.30;;;25.00;59.50;;;;;;4795784;58;21068;-31
2022/09/07 02:21:30;;;;;;;16.10;14.70;;;25.00;59.60;;;;;;4825928;54;21024;-36
2022/09/07 02:26:34;;;;;;;16.48;14.98;;;25.00;59.50;;;;;;4817551;54;21060;-36
2022/09/07 02:31:34;;;;;;;15.50;14.13;;;25.00;59.40;;;;;;4851269;54;21076;-26
2022/09/07 02:36:43;;;;;;;16.62;15.13;;;25.00;59.50;;;;;;4853350;54;21091;-26
2022/09/07 02:41:45;;;;;;;16.48;14.98;;;25.00;59.40;;;;;;4795986;58;21044;-32
2022/09/07 02:47:15;;;;;;;15.63;14.27;;;25.00;59.50;;;;;;4805584;54;20996;-34
2022/09/07 02:53:23;;;;;;;15.63;14.23;;;25.00;59.60;;;;;;4795696;54;21043;-34
2022/09/07 02:59:03;;;;;;;16.08;14.52;;;25.00;59.40;;;;;;4831003;54;21107;-28
2022/09/07 03:04:24;;;;;;;15.50;14.07;;;25.00;59.60;;;;;;4795950;58;21043;-26
2022/09/07 03:09:30;;;;;;;15.23;13.93;;;25.00;59.50;;;;;;4862450;54;21079;-29
2022/09/07 03:14:32;;;;;;;15.82;14.43;;;25.00;60.20;;;;;;4799594;54;21597;-35
2022/09/07 03:19:33;;;;;;;15.15;13.85;;;25.00;59.60;;;;;;4802075;54;21474;-33
2022/09/07 03:24:35;;;;;;;15.68;14.27;;;25.00;59.60;;;;;;4853719;54;21008;-33
2022/09/07 03:29:36;;;;;;;15.95;14.50;;;25.00;59.60;;;;;;4795085;58;21501;-25
2022/09/07 03:34:37;;;;;;;14.90;13.65;;;25.00;59.50;;;;;;4810084;54;21064;-33
2022/09/07 03:39:37;;;;;;;14.77;13.45;;;25.00;59.50;;;;;;4829137;54;21498;-32
2022/09/07 03:44:38;;;;;;;14.77;13.48;;;25.00;59.50;;;;;;4802782;54;21012;-33
2022/09/07 03:49:39;;;;;;;15.00;13.70;;;25.00;59.40;;;;;;4801400;54;21028;-30
2022/09/07 03:54:40;;;;;;;14.52;13.18;;;25.00;59.50;;;;;;4859256;54;21482;-35
2022/09/07 03:59:41;;;;;;;15.05;13.60;;;25.00;59.50;;;;;;4814517;54;21091;-35
2022/09/07 04:04:42;;;;;;;14.85;13.50;;;25.00;59.40;;;;;;4795815;58;21008;-29
2022/09/07 04:09:43;;;;;;;14.82;13.50;;;25.00;59.40;;;;;;4804496;54;21080;-32
2022/09/07 04:14:44;;;;;;;14.35;13.05;;;24.90;59.30;;;;;;4850387;54;21083;-32
2022/09/07 04:19:45;;;;;;;14.40;13.10;;;24.90;59.30;;;;;;4814578;54;21534;-36
2022/09/07 04:24:46;;;;;;;14.32;13.00;;;24.90;59.20;;;;;;4806414;54;21059;-30
2022/09/07 04:29:47;;;;;;;14.02;12.70;;;24.90;59.20;;;;;;4822799;54;21079;-34
2022/09/07 04:34:50;;;;;;;14.63;13.43;;;24.90;59.10;;;;;;4813250;54;21027;-35
2022/09/07 04:39:54;;;;;;;14.55;13.15;;;24.90;59.20;;;;;;4796533;54;21506;-34
2022/09/07 04:44:55;;;;;;;13.65;12.45;;;24.90;59.20;;;;;;4817798;54;21055;-35
2022/09/07 04:49:56;;;;;;;14.45;13.05;;;24.90;59.10;;;;;;4797697;54;21008;-32
2022/09/07 04:54:57;;;;;;;14.18;12.98;;;24.90;59.10;;;;;;4816236;54;21062;-35
2022/09/07 04:59:58;;;;;;;13.15;12.05;;;24.90;59.20;;;;;;4798581;54;21059;-34
2022/09/07 05:04:59;;;;;;;13.82;12.60;;;24.90;59.10;;;;;;4797471;54;21649;-34
2022/09/07 05:10:00;;;;;;;14.00;12.70;;;24.90;59.10;;;;;;4800663;54;21063;-33
2022/09/07 05:15:01;;;;;;;13.65;12.45;;;24.90;59.10;;;;;;4825990;54;21000;-37
2022/09/07 05:20:03;;;;;;;13.90;12.68;;;24.90;59.10;;;;;;4798696;54;21003;-33
2022/09/07 05:25:04;;;;;;;13.57;12.37;;;24.90;59.10;;;;;;4831046;54;21027;-36
2022/09/07 05:30:06;;;;;;;14.32;12.98;;;24.90;59.10;;;;;;4803294;54;21008;-32
2022/09/07 05:35:11;;;;;;;13.88;12.57;;;24.90;59.00;;;;;;4816231;54;20996;-34
2022/09/07 05:40:13;;;;;;;14.52;13.20;;;24.90;59.10;;;;;;4816658;54;20987;-35
2022/09/07 05:45:14;;;;;;;13.75;12.48;;;24.90;59.00;;;;;;4804592;54;21482;-34
2022/09/07 05:50:16;;;;;;;14.40;13.00;;;24.90;59.00;;;;;;4823293;54;21486;-28
2022/09/07 05:55:17;;;;;;;14.20;12.80;;;24.90;58.90;;;;;;4821590;54;22034;-28
2022/09/07 06:00:20;;;;;;;13.85;12.65;;;24.90;59.10;;;;;;4830286;54;21075;-36
2022/09/07 06:05:21;;;;;;;14.32;12.95;;;24.90;59.00;;;;;;4810931;54;21533;-37
2022/09/07 06:10:21;;;;;;;14.50;13.10;;;24.90;59.00;;;;;;4800599;54;21083;-29
2022/09/07 06:15:22;;;;;;;14.27;12.98;;;24.90;59.00;;;;;;4811640;54;21024;-27
2022/09/07 06:20:23;;;;;;;14.25;13.00;;;24.90;58.90;;;;;;4820360;54;21035;-26
2022/09/07 06:25:24;;;;;;;14.07;12.68;;;24.90;58.90;;;;;;4839387;54;21028;-28
2022/09/07 06:30:25;;;;;;;14.70;13.40;;;24.90;58.90;;;;;;4810307;54;21151;-28
2022/09/07 06:35:26;;;;;;;14.70;13.40;;;24.90;58.90;;;;;;4820994;54;21170;-32
2022/09/07 06:40:27;;;;;;;14.87;13.57;;;24.90;59.00;;;;;;4812074;54;22038;-27
2022/09/07 06:45:28;;;;;;;15.23;13.70;;;24.90;59.10;;;;;;4851095;54;21031;-34
2022/09/07 06:50:30;;;;;;;13.88;12.57;;;24.90;59.00;;;;;;4795188;55;21802;-30
2022/09/07 06:55:30;;;;;;;14.70;13.35;;;24.90;59.00;;;;;;4833017;54;22072;-25
2022/09/07 07:00:31;;;;;;;14.95;13.45;;;24.90;59.10;;;;;;4802546;54;21122;-32
2022/09/07 07:05:33;;;;;;;31.27;22.17;;;24.90;58.60;;;;;;4794962;55;21012;-27
2022/09/07 07:10:38;;;;;;;22.62;18.75;;;24.90;56.50;;;;;;4794942;58;21695;-34
2022/09/07 07:15:38;;;;;;;27.95;20.60;;;24.80;56.30;;;;;;4798640;54;21517;-35
2022/09/07 07:20:41;;;;;;;21.70;19.17;;;24.70;56.70;;;;;;4796525;58;21023;-32
2022/09/07 07:25:42;;;;;;;22.90;18.77;;;24.80;57.40;;;;;;4802957;54;21047;-28
2022/09/07 07:30:42;;;;;;;23.33;19.25;;;24.90;57.50;;;;;;4813872;54;21056;-32
2022/09/07 07:35:43;;;;;;;22.58;19.02;;;24.90;57.50;;;;;;4795241;56;21035;-27
2022/09/07 07:40:51;;;;;;;22.92;19.45;;;24.90;57.30;;;;;;4795297;58;21478;-30
2022/09/07 07:45:54;;;;;;;22.55;19.87;;;25.00;57.30;;;;;;4796711;54;21150;-37
2022/09/07 07:51:00;;;;;;;23.55;19.27;;;25.00;57.40;;;;;;4798129;54;21506;-27
2022/09/07 07:56:02;;;;;;;24.00;21.27;;;25.00;57.20;;;;;;4812884;54;21059;-36
2022/09/07 08:01:10;;;;;;;25.55;21.90;;;25.00;57.20;;;;;;4804403;54;21578;-30
2022/09/07 08:06:14;;;;;;;24.27;21.65;;;25.00;57.00;;;;;;4801242;54;20972;-34
2022/09/07 08:11:17;;;;;;;25.77;22.92;;;25.10;57.20;;;;;;4811510;54;21024;-29
2022/09/07 08:16:18;;;;;;;28.42;22.30;;;25.10;57.30;;;;;;4829026;54;21469;-34
2022/09/07 08:21:19;;;;;;;43.70;36.65;;;25.10;57.40;;;;;;4811885;54;21051;-30
2022/09/07 08:26:20;;;;;;;54.25;43.95;;;25.10;57.00;;;;;;4797714;54;21573;-35
2022/09/07 08:31:21;;;;;;;56.22;44.65;;;25.10;57.10;;;;;;4803719;54;21063;-32
2022/09/07 08:36:22;;;;;;;55.25;44.30;;;25.10;57.20;;;;;;4795233;58;21190;-34
2022/09/07 08:43:00;;;;;;;53.97;41.65;;;25.10;57.30;;;;;;4843543;54;21139;-29
2022/09/07 08:48:04;;;;;;;65.65;47.05;;;25.10;58.40;;;;;;4824792;54;21048;-34
2022/09/07 08:53:15;;;;;;;61.42;46.83;;;25.20;58.00;;;;;;4794227;58;21628;-35
2022/09/07 08:58:45;;;;;;;59.22;46.88;;;25.20;57.80;;;;;;4925269;54;21091;-28
2022/09/07 09:03:50;;;;;;;61.67;47.92;;;25.20;57.60;;;;;;4795697;54;21015;-32
2022/09/07 09:09:19;;;;;;;63.97;51.75;;;25.20;57.50;;;;;;4816179;54;21597;-27
2022/09/07 09:14:39;;;;;;;61.00;50.95;;;25.20;57.30;;;;;;4876157;54;21062;-35
2022/09/07 09:20:11;;;;;;;67.80;53.17;;;25.30;57.20;;;;;;4811452;54;21056;-27
2022/09/07 09:25:32;;;;;;;56.40;44.00;;;25.30;57.20;;;;;;4806321;54;21076;-29
2022/09/07 09:30:33;;;;;;;54.13;42.78;;;25.30;56.90;;;;;;4807123;54;21566;-36
2022/09/07 09:35:35;;;;;;;52.17;41.72;;;25.30;56.90;;;;;;4799316;54;21529;-29
2022/09/07 09:40:36;;;;;;;51.58;42.45;;;25.40;57.00;;;;;;4808220;54;21008;-29
2022/09/07 09:45:45;;;;;;;57.47;45.80;;;25.40;57.10;;;;;;4815732;54;21016;-37
2022/09/07 09:50:49;;;;;;;74.75;52.58;;;25.40;57.20;;;;;;4795623;54;21043;-34
2022/09/07 09:55:52;;;;;;;76.95;55.33;;;25.50;57.40;;;;;;4795856;55;21011;-35
2022/09/07 10:01:00;;;;;;;83.90;59.30;;;25.50;57.50;;;;;;4794990;58;21028;-34
2022/09/07 10:06:05;;;;;;;81.12;57.72;;;25.50;57.60;;;;;;4797692;54;21000;-33
2022/09/07 10:11:08;;;;;;;86.60;61.28;;;25.50;57.60;;;;;;4796295;54;21016;-28
2022/09/07 10:16:13;;;;;;;96.55;65.72;;;25.50;57.70;;;;;;4795369;58;21016;-29
2022/09/07 10:21:35;;;;;;;96.40;67.15;;;25.60;57.70;;;;;;4805176;54;21537;-29
2022/09/07 10:26:38;;;;;;;90.47;64.35;;;25.60;57.70;;;;;;4799736;54;21549;-35
2022/09/07 10:31:56;;;;;;;94.50;69.45;;;25.60;57.80;;;;;;4814796;54;21063;-38
2022/09/07 10:37:05;;;;;;;94.80;67.05;;;25.60;57.80;;;;;;4813084;54;21039;-35
2022/09/07 10:42:31;;;;;;;76.68;58.47;;;25.70;58.30;;;;;;4803100;54;21585;-32
2022/09/07 10:49:21;;;;;;;76.47;59.35;;;25.70;57.60;;;;;;4795252;58;21004;-37
2022/09/07 10:54:37;;;;;;;78.37;60.40;;;25.80;57.60;;;;;;4798857;54;21047;-38
2022/09/07 11:00:12;;;;;;;79.20;62.27;;;25.80;57.70;;;;;;4802662;54;21040;-26
2022/09/07 11:06:49;;;;;;;77.72;57.20;;;25.80;57.60;;;;;;4795921;58;20992;-28
2022/09/07 11:12:17;;;;;;;74.72;56.08;;;25.80;58.00;;;;;;4800518;54;21023;-25
2022/09/07 11:17:23;;;;;;;73.90;55.22;;;25.70;58.20;;;;;;4799438;54;21055;-29
2022/09/07 11:22:35;;;;;;;67.40;52.63;;;25.70;58.40;;;;;;4828248;54;21079;-30
2022/09/07 11:27:44;;;;;;;65.12;50.83;;;25.60;58.40;;;;;;4795650;58;20992;-27
2022/09/07 11:34:50;;;;;;;62.08;49.33;;;25.60;58.50;;;;;;4819129;54;21473;-27
2022/09/07 11:40:23;;;;;;;64.45;49.88;;;25.60;58.60;;;;;;4827215;54;21020;-28
2022/09/07 11:45:45;;;;;;;66.28;51.63;;;25.50;58.50;;;;;;4817371;54;20992;-30
2022/09/07 11:50:56;;;;;;;64.62;49.95;;;25.50;58.50;;;;;;4799579;54;21102;-29
2022/09/07 11:56:18;;;;;;;60.00;49.08;;;25.50;58.60;;;;;;4837272;54;21545;-26
2022/09/07 12:01:56;;;;;;;63.45;48.17;;;25.50;58.60;;;;;;4794405;58;21072;-29
2022/09/07 12:09:00;;;;;;;64.78;47.53;;;25.50;58.60;;;;;;4795255;55;21059;-27
2022/09/07 12:17:19;;;;;;;74.87;49.60;;;25.50;58.60;;;;;;4816500;54;21040;-33
2022/09/07 12:22:21;;;;;;;73.72;52.45;;;25.60;57.80;;;;;;4827855;54;21031;-33
2022/09/07 12:27:43;;;;;;;74.10;53.17;;;25.70;57.70;;;;;;4794853;58;21048;-35
2022/09/07 12:33:18;;;;;;;73.97;56.65;;;25.80;57.30;;;;;;4801885;54;21000;-34
2022/09/07 12:40:11;;;;;;;80.87;59.88;;;25.90;56.80;;;;;;4812343;54;21028;-32
2022/09/07 12:48:52;;;;;;;87.62;64.30;;;25.90;57.10;;;;;;4810932;54;21052;-34
2022/09/07 12:57:10;;;;;;;83.30;61.10;;;26.00;56.80;;;;;;4813948;54;21112;-33
2022/09/07 13:02:48;;;;;;;101.87;75.95;;;26.00;56.90;;;;;;4797462;54;21068;-33
2022/09/07 13:09:30;;;;;;;107.53;84.35;;;26.10;56.60;;;;;;4802386;54;21088;-31
2022/09/07 13:14:35;;;;;;;99.65;82.03;;;26.20;56.20;;;;;;4829110;54;21039;-28
2022/09/07 13:20:37;;;;;;;101.40;81.32;;;26.20;56.30;;;;;;4804884;54;21087;-32
2022/09/07 13:25:44;;;;;;;99.22;77.12;;;26.30;56.60;;;;;;4810086;54;21108;-32
2022/09/07 13:37:57;;;;;;;88.18;70.35;;;26.30;57.10;;;;;;4798615;54;21154;-27
2022/09/07 13:42:59;;;;;;;106.50;82.20;;;26.30;56.70;;;;;;4815472;54;21016;-27
2022/09/07 13:48:31;;;;;;;96.10;71.50;;;26.40;56.10;;;;;;4806315;54;21707;-30
2022/09/07 13:58:48;;;;;;;92.43;70.35;;;26.40;55.50;;;;;;4800631;54;21087;-26
2022/09/07 14:03:55;;;;;;;76.43;60.63;;;26.40;55.30;;;;;;4835611;54;21442;-28
2022/09/07 14:09:03;;;;;;;77.05;62.83;;;26.40;55.30;;;;;;4816826;54;21040;-28
2022/09/07 14:14:06;;;;;;;85.15;66.82;;;26.40;55.30;;;;;;4797076;54;21008;-29
2022/09/07 14:19:18;;;;;;;85.03;69.55;;;26.40;55.20;;;;;;4820989;54;21064;-27
2022/09/07 14:24:28;;;;;;;88.00;73.00;;;26.40;55.30;;;;;;4816377;54;21079;-31
2022/09/07 14:29:32;;;;;;;88.18;72.62;;;26.40;55.60;;;;;;4870744;54;21557;-30
2022/09/07 14:34:36;;;;;;;81.53;69.93;;;26.30;55.90;;;;;;4812629;54;21020;-31
2022/09/07 14:39:40;;;;;;;84.25;69.35;;;26.20;56.20;;;;;;4806492;54;21018;-28
2022/09/07 14:44:44;;;;;;;81.22;67.45;;;26.20;56.50;;;;;;4817976;54;21039;-28
2022/09/07 14:49:51;;;;;;;79.45;65.82;;;26.10;56.60;;;;;;4795250;58;21521;-33
2022/09/07 14:54:55;;;;;;;76.37;66.35;;;26.00;56.80;;;;;;4805832;54;21490;-26
2022/09/07 14:59:56;;;;;;;78.50;66.35;;;26.00;57.00;;;;;;4803759;54;21048;-33
2022/09/07 15:08:39;;;;;;;76.62;64.43;;;26.00;57.20;;;;;;4809944;54;20996;-37
2022/09/07 15:13:43;;;;;;;75.60;63.03;;;25.90;57.40;;;;;;4833051;54;21000;-32
2022/09/07 15:18:54;;;;;;;75.05;61.65;;;25.90;57.50;;;;;;4862201;54;21055;-34
2022/09/07 15:23:59;;;;;;;75.10;62.75;;;25.80;57.60;;;;;;4814499;54;20992;-31
2022/09/07 15:29:00;;;;;;;72.90;60.90;;;25.80;57.70;;;;;;4807145;54;21056;-29
2022/09/07 15:34:08;;;;;;;72.25;60.70;;;25.80;57.80;;;;;;4811211;54;22169;-29
2022/09/07 15:39:25;;;;;;;68.80;59.95;;;25.80;57.90;;;;;;4823226;54;21566;-28
2022/09/07 15:44:26;;;;;;;73.05;61.13;;;25.80;58.10;;;;;;4819293;54;21501;-30
2022/09/07 15:49:27;;;;;;;69.20;59.28;;;25.80;58.10;;;;;;4813700;54;21007;-30
2022/09/07 15:54:30;;;;;;;64.87;56.92;;;25.70;58.10;;;;;;4798805;54;21056;-25
2022/09/07 15:59:32;;;;;;;68.18;58.95;;;25.70;58.20;;;;;;4869648;54;21027;-30
2022/09/07 16:04:33;;;;;;;68.60;58.72;;;25.70;58.30;;;;;;4831244;54;21079;-26
2022/09/07 16:09:35;;;;;;;67.10;57.10;;;25.70;58.30;;;;;;4822699;54;21133;-27
2022/09/07 16:14:36;;;;;;;65.53;56.72;;;25.70;58.40;;;;;;4817601;54;21000;-30
2022/09/07 16:19:37;;;;;;;65.90;56.55;;;25.70;58.50;;;;;;4828794;54;20992;-28
2022/09/07 16:24:38;;;;;;;65.55;57.50;;;25.70;58.50;;;;;;4819664;54;21075;-26
2022/09/07 16:29:39;;;;;;;63.70;56.05;;;25.70;58.60;;;;;;4841221;54;21039;-27
2022/09/07 16:34:40;;;;;;;62.10;54.97;;;25.70;58.60;;;;;;4795429;58;21012;-26
2022/09/07 16:39:43;;;;;;;61.45;54.75;;;25.70;58.70;;;;;;4824586;54;21607;-26
2022/09/07 16:44:44;;;;;;;62.60;53.78;;;25.70;58.70;;;;;;4794827;58;21478;-29
2022/09/07 16:49:45;;;;;;;63.38;55.28;;;25.60;58.70;;;;;;4802183;54;21094;-27
2022/09/07 16:54:49;;;;;;;64.22;54.42;;;25.60;58.80;;;;;;4811178;54;20999;-31
2022/09/07 16:59:50;;;;;;;60.53;53.87;;;25.60;58.80;;;;;;4820945;54;21048;-35
2022/09/07 17:04:50;;;;;;;60.53;53.13;;;25.60;58.90;;;;;;4809908;54;21032;-29
2022/09/07 17:09:52;;;;;;;59.67;52.70;;;25.60;58.90;;;;;;4799105;54;21991;-34
2022/09/07 17:14:53;;;;;;;61.63;52.67;;;25.60;59.00;;;;;;4805141;54;22011;-30
2022/09/07 17:19:56;;;;;;;61.58;52.47;;;25.60;59.00;;;;;;4795167;55;21122;-32
2022/09/07 17:24:56;;;;;;;61.85;52.40;;;25.60;59.10;;;;;;4812499;54;21497;-34
2022/09/07 17:30:00;;;;;;;61.75;53.35;;;25.60;59.20;;;;;;4802646;54;21122;-26
2022/09/07 17:35:01;;;;;;;59.83;52.33;;;25.60;59.20;;;;;;4811514;54;21580;-29
2022/09/07 17:40:03;;;;;;;57.42;51.30;;;25.60;59.20;;;;;;4807817;54;21115;-29
2022/09/07 17:45:06;;;;;;;57.25;50.15;;;25.60;59.30;;;;;;4822809;54;21501;-31
2022/09/07 17:50:08;;;;;;;57.85;51.50;;;25.60;59.30;;;;;;4800738;54;21951;-35
2022/09/07 17:55:09;;;;;;;57.47;50.80;;;25.60;59.30;;;;;;4852489;54;21561;-26
2022/09/07 18:00:11;;;;;;;55.08;49.03;;;25.60;59.40;;;;;;4803953;54;21044;-32
2022/09/07 18:05:12;;;;;;;56.15;49.08;;;25.50;59.30;;;;;;4804527;54;21629;-29
2022/09/07 18:10:13;;;;;;;53.28;47.50;;;25.50;59.40;;;;;;4818677;54;21128;-27
2022/09/07 18:15:14;;;;;;;55.47;49.33;;;25.50;59.30;;;;;;4853267;54;21068;-27
2022/09/07 18:20:15;;;;;;;54.03;48.13;;;25.50;59.40;;;;;;4809423;54;21076;-32
2022/09/07 18:25:16;;;;;;;55.35;48.05;;;25.50;59.40;;;;;;4827273;54;21094;-28
2022/09/07 18:30:17;;;;;;;54.30;48.17;;;25.50;59.40;;;;;;4795056;55;21028;-31
2022/09/07 18:35:18;;;;;;;53.60;47.05;;;25.50;59.70;;;;;;4800743;54;21048;-27
2022/09/07 18:40:19;;;;;;;50.20;44.40;;;25.50;59.50;;;;;;4825933;54;21012;-34
2022/09/07 18:45:20;;;;;;;51.20;45.58;;;25.50;60.10;;;;;;4797441;54;21027;-38
2022/09/07 18:50:22;;;;;;;53.35;46.75;;;25.50;60.00;;;;;;4831356;54;21556;-34
2022/09/07 18:55:22;;;;;;;51.75;45.75;;;25.50;59.60;;;;;;4824490;54;21470;-27
2022/09/07 19:00:23;;;;;;;50.63;44.78;;;25.50;59.70;;;;;;4816843;54;21040;-30
2022/09/07 19:05:24;;;;;;;50.30;44.92;;;25.50;59.60;;;;;;4928391;54;21000;-32
2022/09/07 19:10:25;;;;;;;46.50;41.42;;;25.50;59.70;;;;;;4799490;54;21010;-31
2022/09/07 19:15:26;;;;;;;48.95;43.30;;;25.50;59.70;;;;;;4818199;54;21549;-35
2022/09/07 19:20:28;;;;;;;49.78;43.00;;;25.50;59.70;;;;;;4844857;54;21016;-30
2022/09/07 19:25:28;;;;;;;46.92;41.97;;;25.50;59.70;;;;;;4800514;54;21609;-27
2022/09/07 19:30:29;;;;;;;47.97;42.40;;;25.50;59.70;;;;;;4821690;54;21092;-28
2022/09/07 19:35:33;;;;;;;47.65;42.50;;;25.50;59.80;;;;;;4812472;54;21001;-28
2022/09/07 19:40:34;;;;;;;46.55;41.58;;;25.50;59.80;;;;;;4797603;54;21581;-28
2022/09/07 19:45:39;;;;;;;45.80;40.75;;;25.50;59.90;;;;;;4799247;54;20988;-29
2022/09/07 19:50:40;;;;;;;47.15;41.05;;;25.50;59.80;;;;;;4817025;54;21486;-25
2022/09/07 19:55:41;;;;;;;46.40;40.75;;;25.50;60.00;;;;;;4795443;58;21513;-26
2022/09/07 20:00:42;;;;;;;45.45;39.95;;;25.50;59.90;;;;;;4807107;54;21562;-26
2022/09/07 20:05:43;;;;;;;46.55;41.03;;;25.50;59.90;;;;;;4798847;54;20996;-25
2022/09/07 20:10:44;;;;;;;43.92;39.22;;;25.50;59.90;;;;;;4796960;54;21533;-26
2022/09/07 20:15:44;;;;;;;43.97;39.28;;;25.50;59.90;;;;;;4795524;58;21019;-25
2022/09/07 20:20:48;;;;;;;42.90;38.35;;;25.50;59.90;;;;;;4908394;54;21609;-27
2022/09/07 20:26:00;;;;;;;42.50;37.95;;;25.50;60.00;;;;;;4810220;54;21024;-30
2022/09/07 20:31:08;;;;;;;46.15;38.80;;;25.40;59.90;;;;;;4832253;54;21007;-29
2022/09/07 20:36:14;;;;;;;42.08;37.40;;;25.40;60.00;;;;;;4819634;54;21087;-31
2022/09/07 20:41:21;;;;;;;42.92;38.25;;;25.50;60.00;;;;;;4815195;54;20995;-27
2022/09/07 20:46:22;;;;;;;41.70;37.30;;;25.40;60.00;;;;;;4806017;54;20996;-29
2022/09/07 20:51:23;;;;;;;40.97;35.65;;;25.50;60.00;;;;;;4795822;54;21086;-29
2022/09/07 20:56:26;;;;;;;41.63;36.78;;;25.40;60.10;;;;;;4813093;54;21019;-34
2022/09/07 21:01:29;;;;;;;40.30;35.75;;;25.40;60.10;;;;;;4805284;54;22377;-32
2022/09/07 21:06:31;;;;;;;38.80;34.60;;;25.40;60.70;;;;;;4799917;54;21020;-27
2022/09/07 21:11:34;;;;;;;37.45;33.30;;;25.40;60.10;;;;;;4816557;54;21505;-30
2022/09/07 21:16:35;;;;;;;39.55;35.35;;;25.40;60.20;;;;;;4821721;54;21083;-37
2022/09/07 21:21:38;;;;;;;37.53;33.53;;;25.40;60.20;;;;;;4806042;54;21546;-39
2022/09/07 21:26:39;;;;;;;38.88;33.65;;;25.40;60.20;;;;;;4810268;54;21020;-33
2022/09/07 21:31:40;;;;;;;36.05;32.22;;;25.40;60.20;;;;;;4819912;54;21016;-25
2022/09/07 21:36:40;;;;;;;36.47;32.60;;;25.40;60.20;;;;;;4840406;54;21036;-34
2022/09/07 21:41:42;;;;;;;36.65;32.47;;;25.40;60.30;;;;;;4831972;54;21541;-37
2022/09/07 21:46:43;;;;;;;35.25;31.37;;;25.40;60.30;;;;;;4803691;54;21008;-25
2022/09/07 21:51:44;;;;;;;35.38;31.17;;;25.40;60.30;;;;;;4819494;54;21071;-38
2022/09/07 21:56:44;;;;;;;33.72;30.12;;;25.40;60.40;;;;;;4804367;54;21003;-35
2022/09/07 22:01:45;;;;;;;34.88;30.33;;;25.40;60.30;;;;;;4801233;54;21036;-34
2022/09/07 22:06:47;;;;;;;33.22;29.80;;;25.40;60.40;;;;;;4805885;54;21068;-34
2022/09/07 22:11:48;;;;;;;35.38;31.27;;;25.40;61.00;;;;;;4795064;58;21063;-30
2022/09/07 22:16:52;;;;;;;35.35;30.75;;;25.40;60.40;;;;;;4795418;58;21008;-25
2022/09/07 22:21:53;;;;;;;32.78;29.27;;;25.40;60.40;;;;;;4799593;54;21007;-33
2022/09/07 22:26:57;;;;;;;32.33;28.92;;;25.40;60.80;;;;;;4827884;54;21068;-34
2022/09/07 22:31:57;;;;;;;34.17;30.58;;;25.40;60.50;;;;;;4795614;54;21553;-33
2022/09/07 22:36:58;;;;;;;33.30;29.37;;;25.40;60.50;;;;;;4803946;54;21016;-25
2022/09/07 22:42:02;;;;;;;31.73;28.42;;;25.40;60.70;;;;;;4797104;54;21482;-29
2022/09/07 22:47:22;;;;;;;31.85;28.08;;;25.40;60.60;;;;;;4803880;54;21482;-25
2022/09/07 22:52:22;;;;;;;30.67;27.42;;;25.40;60.60;;;;;;4814044;54;21012;-25
2022/09/07 22:57:23;;;;;;;30.90;27.20;;;25.40;60.60;;;;;;4819849;54;21537;-32
2022/09/07 23:02:24;;;;;;;29.95;26.77;;;25.40;60.70;;;;;;4811010;54;21526;-36
2022/09/07 23:07:25;;;;;;;31.83;28.45;;;25.40;60.70;;;;;;4804174;54;21056;-26
2022/09/07 23:12:27;;;;;;;29.80;26.75;;;25.40;60.60;;;;;;4843356;54;21063;-34
2022/09/07 23:17:28;;;;;;;30.62;27.42;;;25.40;60.70;;;;;;4797298;54;21019;-31
2022/09/07 23:22:30;;;;;;;30.15;27.05;;;25.30;60.60;;;;;;4801329;54;21052;-25
2022/09/07 23:27:31;;;;;;;28.80;25.75;;;25.40;60.70;;;;;;4814557;54;22009;-36
2022/09/07 23:32:32;;;;;;;29.25;26.27;;;25.40;60.80;;;;;;4848426;54;21051;-33
2022/09/07 23:37:33;;;;;;;30.92;26.65;;;25.40;60.80;;;;;;4825353;54;21028;-34
2022/09/07 23:42:34;;;;;;;28.75;25.65;;;25.30;60.70;;;;;;4810681;54;21027;-31
2022/09/07 23:47:35;;;;;;;28.02;24.85;;;25.30;61.30;;;;;;4795454;58;21489;-34
2022/09/07 23:52:36;;;;;;;28.05;24.77;;;25.40;60.80;;;;;;4826847;54;21087;-25
2022/09/07 23:57:37;;;;;;;29.35;26.05;;;25.40;60.80;;;;;;4801601;54;21554;-30
